Muson — UGLB — position and weather

sailwx.info

Track history (hours):
 
Tides and Currents Weather Stations Pressure Air Temp Water Temp Dewpoint Dewpoint Depression Visibility Wind Speed Wind Dir Waves Ship Positions

Muson

Last reported at 2016-Jul-29 01:19 UTC. Time now 2016-Jul-29 02:09 UTC.
Position N 59°56' E 029°42'.

Length 36 m; draft 4.5 m.

Type: Tug. MMSI: 273444990.

Date/timePositionNaut miles runAvg speedWind from/ knotsBaromVisibWave heightAir tempDewpointWater temp
2016-Jul-29 01:19N 59°56' E 029°42'0 0.0
2016-Jul-29 00:20N 59°56' E 029°42'0 0.0
2016-Jul-28 23:34N 59°56' E 029°42'0 0.0
2016-Jul-28 19:30N 59°56' E 029°42'0 0.0
2016-Jul-28 18:06N 59°56' E 029°42'0 0.0
2016-Jul-28 15:08N 59°56' E 029°42'0 0.5
2016-Jul-28 14:33N 59°56' E 029°42'0 0.2
2016-Jul-28 13:30N 59°56' E 029°41'0 0.2
2016-Jul-28 12:33N 59°56' E 029°42'0 0.1
2016-Jul-28 11:33N 59°56' E 029°42'0 0.2
2016-Jul-28 10:32N 59°56' E 029°42'0 0.3
2016-Jul-28 09:26N 59°56' E 029°42'0 0.1
2016-Jul-28 08:14N 59°56' E 029°42'0 0.3
2016-Jul-28 07:25N 59°56' E 029°41'0 0.2
2016-Jul-28 06:19N 59°56' E 029°42'0 0.1
2016-Jul-28 05:12N 59°56' E 029°42'0 0.1
2016-Jul-28 04:17N 59°56' E 029°42'0 0.1
2016-Jul-28 01:19N 59°56' E 029°42'0 0.0
2016-Jul-28 00:29N 59°56' E 029°42'0 0.0
2016-Jul-27 23:33N 59°56' E 029°42'0 0.0
2016-Jul-27 22:33N 59°56' E 029°42'0 0.0
2016-Jul-27 21:33N 59°56' E 029°42'0 0.0
2016-Jul-27 20:32N 59°56' E 029°42'0 0.0
2016-Jul-27 19:30N 59°56' E 029°42'0 0.0
2016-Jul-27 18:08N 59°56' E 029°42'0 0.0
2016-Jul-27 17:33N 59°56' E 029°42'0 0.0
2016-Jul-27 16:30N 59°56' E 029°42'0 0.0
2016-Jul-27 14:33N 59°56' E 029°42'1 0.6
2016-Jul-27 13:33N 59°56' E 029°41'0 0.3
2016-Jul-27 12:33N 59°56' E 029°42'0 0.1
2016-Jul-27 11:33N 59°56' E 029°42'0 0.1
2016-Jul-27 10:33N 59°56' E 029°42'0 0.2
2016-Jul-27 09:33N 59°56' E 029°41'0 0.3
2016-Jul-27 08:33N 59°56' E 029°42'0 0.2
2016-Jul-27 07:24N 59°56' E 029°42'0 0.1
2016-Jul-27 06:33N 59°56' E 029°42'0 0.1
2016-Jul-27 05:22N 59°56' E 029°42'0 0.2
2016-Jul-27 04:16N 59°56' E 029°42'0 0.1
2016-Jul-26 23:07N 59°56' E 029°42'0 0.0
2016-Jul-26 21:33N 59°56' E 029°42'0 0.0
2016-Jul-26 20:33N 59°56' E 029°42'0 0.0
2016-Jul-26 19:33N 59°56' E 029°42'3 1.1
2016-Jul-26 17:07N 59°59' E 029°43'0 0.7
2016-Jul-26 16:33N 59°59' E 029°44'3 2.6
2016-Jul-26 15:33N 59°56' E 029°43'1 0.7
2016-Jul-26 14:33N 59°56' E 029°41'0 0.0
2016-Jul-26 13:31N 59°56' E 029°41'0 0.3
2016-Jul-26 12:25N 59°56' E 029°42'0 0.4
2016-Jul-26 11:18N 59°56' E 029°41'0 0.5
2016-Jul-26 10:18N 59°56' E 029°42'0 0.1
2016-Jul-26 09:30N 59°56' E 029°42'0 0.4
2016-Jul-26 08:32N 59°56' E 029°41'0 0.2
2016-Jul-26 07:19N 59°56' E 029°42'0 0.3
2016-Jul-26 06:33N 59°56' E 029°41'0 0.1
2016-Jul-26 05:33N 59°56' E 029°41'0 0.2
2016-Jul-26 04:20N 59°56' E 029°42'1 0.7
2016-Jul-26 03:33N 59°56' E 029°41'1 0.7
2016-Jul-26 02:31N 59°56' E 029°42'0 0.0
2016-Jul-26 01:33N 59°56' E 029°42'0 0.0
2016-Jul-26 00:33N 59°56' E 029°42'0 0.0
2016-Jul-25 23:33N 59°56' E 029°42'0 0.0
2016-Jul-25 22:33N 59°56' E 029°42'0 0.0
2016-Jul-25 21:33N 59°56' E 029°42'0 0.0
2016-Jul-25 20:33N 59°56' E 029°42'0 0.0
2016-Jul-25 19:33N 59°56' E 029°42'0 0.0
2016-Jul-25 18:33N 59°56' E 029°42'0 0.0
2016-Jul-25 16:32N 59°56' E 029°42'0 0.0
2016-Jul-25 15:33N 59°56' E 029°42'0 0.3
2016-Jul-25 14:33N 59°56' E 029°42'0 0.3
2016-Jul-25 13:29N 59°56' E 029°41'0 0.2
2016-Jul-25 12:30N 59°56' E 029°41'0 0.1
2016-Jul-25 11:15N 59°56' E 029°41'0 0.1
2016-Jul-25 10:28N 59°56' E 029°41'0 0.4
2016-Jul-25 09:29N 59°56' E 029°42'0 0.1
2016-Jul-25 08:26N 59°56' E 029°42'0 0.5
2016-Jul-25 07:33N 59°56' E 029°41'0 0.4
2016-Jul-25 06:27N 59°56' E 029°42'0 0.2
2016-Jul-25 04:31N 59°56' E 029°41'0 0.0
2016-Jul-25 03:31N 59°56' E 029°41'1 0.1
2016-Jul-24 16:33N 59°56' E 029°42'0 0.0
2016-Jul-24 15:30N 59°56' E 029°42'0 0.2
2016-Jul-24 14:29N 59°56' E 029°42'0 0.1
2016-Jul-24 13:33N 59°56' E 029°42'0 0.3
2016-Jul-24 12:27N 59°56' E 029°41'0 0.1
2016-Jul-24 10:31N 59°56' E 029°42'0 0.1
2016-Jul-24 09:26N 59°56' E 029°42'0 0.1
2016-Jul-24 08:32N 59°56' E 029°41'0 0.4
2016-Jul-24 07:29N 59°56' E 029°42'0 0.3
2016-Jul-24 06:24N 59°56' E 029°42'0 0.2
2016-Jul-24 05:29N 59°56' E 029°42'0 0.1
2016-Jul-24 04:25N 59°56' E 029°42'0 0.2
2016-Jul-24 03:16N 59°56' E 029°42'0 0.0
2016-Jul-24 00:30N 59°56' E 029°42'0 0.0
2016-Jul-23 23:33N 59°56' E 029°42'0 0.0
2016-Jul-23 22:33N 59°56' E 029°42'0 0.0
2016-Jul-23 21:29N 59°56' E 029°42'0 0.0
2016-Jul-23 20:33N 59°56' E 029°42'0 0.0
2016-Jul-23 19:33N 59°56' E 029°42'0 0.0
2016-Jul-23 18:23N 59°56' E 029°42'0 0.0
2016-Jul-23 17:12N 59°56' E 029°42'0 0.0
2016-Jul-23 16:33N 59°56' E 029°42'0 0.0
2016-Jul-23 15:28N 59°56' E 029°42'0 0.4
2016-Jul-23 14:30N 59°56' E 029°42'0 0.3
2016-Jul-23 13:31N 59°56' E 029°41'0 0.0
2016-Jul-23 10:18N 59°56' E 029°41'0 0.1
2016-Jul-23 09:31N 59°56' E 029°41'0 0.4
2016-Jul-23 08:20N 59°56' E 029°42'0 0.0
2016-Jul-23 07:32N 59°56' E 029°42'0 0.2
2016-Jul-23 06:29N 59°56' E 029°42'0 0.2
2016-Jul-23 04:33N 59°56' E 029°41'0 0.1
2016-Jul-23 03:33N 59°56' E 029°41'1 0.7
2016-Jul-23 02:33N 59°56' E 029°42'0 0.0
2016-Jul-23 01:33N 59°56' E 029°42'0 0.0
2016-Jul-23 00:33N 59°56' E 029°42'0 0.0
2016-Jul-22 23:33N 59°56' E 029°42'0 0.0
2016-Jul-22 22:33N 59°56' E 029°42'0 0.0
2016-Jul-22 21:33N 59°56' E 029°42'0 0.0
2016-Jul-22 20:33N 59°56' E 029°42'0 0.0
2016-Jul-22 19:33N 59°56' E 029°42'0 0.0
2016-Jul-22 18:33N 59°56' E 029°42'0 0.0
2016-Jul-22 17:33N 59°56' E 029°42'0 0.0
2016-Jul-22 16:34N 59°56' E 029°42'0 0.0
2016-Jul-22 15:33N 59°56' E 029°42'1 0.6
2016-Jul-22 14:31N 59°56' E 029°41'0 0.1
2016-Jul-22 13:03N 59°56' E 029°41'0 0.6
2016-Jul-22 12:32N 59°56' E 029°42'0 0.2
2016-Jul-22 10:32N 59°56' E 029°41'0 0.0
2016-Jul-22 09:31N 59°56' E 029°41'1 0.5
2016-Jul-22 08:15N 59°56' E 029°42'0 0.0
2016-Jul-22 07:12N 59°56' E 029°42'0 0.0
2016-Jul-21 13:25N 59°56' E 029°42'0 0.2
2016-Jul-21 12:24N 59°56' E 029°42'0 0.2
2016-Jul-21 11:18N 59°56' E 029°42'0 0.1
2016-Jul-21 10:32N 59°56' E 029°42'0 0.4
2016-Jul-21 09:24N 59°56' E 029°41'0 0.3
2016-Jul-21 08:33N 59°56' E 029°42'0 0.1
2016-Jul-21 07:33N 59°56' E 029°42'0 0.2
2016-Jul-21 06:32N 59°56' E 029°41'0 0.5
2016-Jul-21 05:27N 59°56' E 029°42'1 0.7
2016-Jul-21 04:32N 59°56' E 029°41'0 0.0
2016-Jul-21 03:28N 59°56' E 029°41'1 0.1
2016-Jul-20 22:21N 59°56' E 029°42'0 0.0
2016-Jul-20 11:19N 59°56' E 029°42'0 0.1
2016-Jul-20 10:18N 59°56' E 029°42'1 0.6
2016-Jul-20 09:26N 59°56' E 029°41'0 0.2
2016-Jul-20 08:32N 59°56' E 029°41'1 0.5
2016-Jul-20 07:24N 59°56' E 029°43'0 0.4
2016-Jul-20 06:31N 59°56' E 029°42'0 0.1
2016-Jul-20 05:33N 59°56' E 029°42'0 0.4
2016-Jul-20 04:32N 59°56' E 029°41'1 0.1
2016-Jul-19 21:12N 59°56' E 029°42'0 0.1
2016-Jul-19 20:32N 59°56' E 029°42'0 0.1
2016-Jul-19 19:33N 59°56' E 029°42'0 0.0
2016-Jul-19 18:33N 59°56' E 029°42'0 0.0
2016-Jul-19 17:33N 59°56' E 029°42'0 0.0
2016-Jul-19 16:33N 59°56' E 029°42'0 0.0
2016-Jul-19 15:33N 59°56' E 029°42'3 1.3
2016-Jul-19 13:33N 59°59' E 029°44'0 0.1
2016-Jul-19 12:17N 59°59' E 029°44'0 0.2
2016-Jul-19 11:26N 59°59' E 029°44'0 0.1
2016-Jul-19 10:32N 59°58' E 029°45'0 0.1
2016-Jul-19 09:33N 59°59' E 029°45'0 0.1
2016-Jul-19 08:33N 59°59' E 029°45'0 0.1
2016-Jul-19 07:15N 59°59' E 029°44'0 0.1
2016-Jul-19 04:31N 59°59' E 029°44'2 1.6
2016-Jul-19 03:33N 59°57' E 029°44'  
Track history (hours):
 
Tides and Currents Weather Stations Pressure Air Temp Water Temp Dewpoint Dewpoint Depression Visibility Wind Speed Wind Dir Waves Ship Positions

Muson

Last reported at 2016-Jul-29 01:19 UTC. Time now 2016-Jul-29 02:09 UTC.
Position N 59°56' E 029°42'.

Length 36 m; draft 4.5 m.

Type: Tug. MMSI: 273444990.

Date/timePositionNaut miles runAvg speedWind from/ knotsBaromVisibWave heightAir tempDewpointWater temp
2016-Jul-29 01:19N 59°56' E 029°42'0 0.0
2016-Jul-29 00:20N 59°56' E 029°42'0 0.0
2016-Jul-28 23:34N 59°56' E 029°42'0 0.0
2016-Jul-28 19:30N 59°56' E 029°42'0 0.0
2016-Jul-28 18:06N 59°56' E 029°42'0 0.0
2016-Jul-28 15:08N 59°56' E 029°42'0 0.5
2016-Jul-28 14:33N 59°56' E 029°42'0 0.2
2016-Jul-28 13:30N 59°56' E 029°41'0 0.2
2016-Jul-28 12:33N 59°56' E 029°42'0 0.1
2016-Jul-28 11:33N 59°56' E 029°42'0 0.2
2016-Jul-28 10:32N 59°56' E 029°42'0 0.3
2016-Jul-28 09:26N 59°56' E 029°42'0 0.1
2016-Jul-28 08:14N 59°56' E 029°42'0 0.3
2016-Jul-28 07:25N 59°56' E 029°41'0 0.2
2016-Jul-28 06:19N 59°56' E 029°42'0 0.1
2016-Jul-28 05:12N 59°56' E 029°42'0 0.1
2016-Jul-28 04:17N 59°56' E 029°42'0 0.1
2016-Jul-28 01:19N 59°56' E 029°42'0 0.0
2016-Jul-28 00:29N 59°56' E 029°42'0 0.0
2016-Jul-27 23:33N 59°56' E 029°42'0 0.0
2016-Jul-27 22:33N 59°56' E 029°42'0 0.0
2016-Jul-27 21:33N 59°56' E 029°42'0 0.0
2016-Jul-27 20:32N 59°56' E 029°42'0 0.0
2016-Jul-27 19:30N 59°56' E 029°42'0 0.0
2016-Jul-27 18:08N 59°56' E 029°42'0 0.0
2016-Jul-27 17:33N 59°56' E 029°42'0 0.0
2016-Jul-27 16:30N 59°56' E 029°42'0 0.0
2016-Jul-27 14:33N 59°56' E 029°42'1 0.6
2016-Jul-27 13:33N 59°56' E 029°41'0 0.3
2016-Jul-27 12:33N 59°56' E 029°42'0 0.1
2016-Jul-27 11:33N 59°56' E 029°42'0 0.1
2016-Jul-27 10:33N 59°56' E 029°42'0 0.2
2016-Jul-27 09:33N 59°56' E 029°41'0 0.3
2016-Jul-27 08:33N 59°56' E 029°42'0 0.2
2016-Jul-27 07:24N 59°56' E 029°42'0 0.1
2016-Jul-27 06:33N 59°56' E 029°42'0 0.1
2016-Jul-27 05:22N 59°56' E 029°42'0 0.2
2016-Jul-27 04:16N 59°56' E 029°42'0 0.1
2016-Jul-26 23:07N 59°56' E 029°42'0 0.0
2016-Jul-26 21:33N 59°56' E 029°42'0 0.0
2016-Jul-26 20:33N 59°56' E 029°42'0 0.0
2016-Jul-26 19:33N 59°56' E 029°42'3 1.1
2016-Jul-26 17:07N 59°59' E 029°43'0 0.7
2016-Jul-26 16:33N 59°59' E 029°44'3 2.6
2016-Jul-26 15:33N 59°56' E 029°43'1 0.7
2016-Jul-26 14:33N 59°56' E 029°41'0 0.0
2016-Jul-26 13:31N 59°56' E 029°41'0 0.3
2016-Jul-26 12:25N 59°56' E 029°42'0 0.4
2016-Jul-26 11:18N 59°56' E 029°41'0 0.5
2016-Jul-26 10:18N 59°56' E 029°42'0 0.1
2016-Jul-26 09:30N 59°56' E 029°42'0 0.4
2016-Jul-26 08:32N 59°56' E 029°41'0 0.2
2016-Jul-26 07:19N 59°56' E 029°42'0 0.3
2016-Jul-26 06:33N 59°56' E 029°41'0 0.1
2016-Jul-26 05:33N 59°56' E 029°41'0 0.2
2016-Jul-26 04:20N 59°56' E 029°42'1 0.7
2016-Jul-26 03:33N 59°56' E 029°41'1 0.7
2016-Jul-26 02:31N 59°56' E 029°42'0 0.0
2016-Jul-26 01:33N 59°56' E 029°42'0 0.0
2016-Jul-26 00:33N 59°56' E 029°42'0 0.0
2016-Jul-25 23:33N 59°56' E 029°42'0 0.0
2016-Jul-25 22:33N 59°56' E 029°42'0 0.0
2016-Jul-25 21:33N 59°56' E 029°42'0 0.0
2016-Jul-25 20:33N 59°56' E 029°42'0 0.0
2016-Jul-25 19:33N 59°56' E 029°42'0 0.0
2016-Jul-25 18:33N 59°56' E 029°42'0 0.0
2016-Jul-25 16:32N 59°56' E 029°42'0 0.0
2016-Jul-25 15:33N 59°56' E 029°42'0 0.3
2016-Jul-25 14:33N 59°56' E 029°42'0 0.3
2016-Jul-25 13:29N 59°56' E 029°41'0 0.2
2016-Jul-25 12:30N 59°56' E 029°41'0 0.1
2016-Jul-25 11:15N 59°56' E 029°41'0 0.1
2016-Jul-25 10:28N 59°56' E 029°41'0 0.4
2016-Jul-25 09:29N 59°56' E 029°42'0 0.1
2016-Jul-25 08:26N 59°56' E 029°42'0 0.5
2016-Jul-25 07:33N 59°56' E 029°41'0 0.4
2016-Jul-25 06:27N 59°56' E 029°42'0 0.2
2016-Jul-25 04:31N 59°56' E 029°41'0 0.0
2016-Jul-25 03:31N 59°56' E 029°41'1 0.1
2016-Jul-24 16:33N 59°56' E 029°42'0 0.0
2016-Jul-24 15:30N 59°56' E 029°42'0 0.2
2016-Jul-24 14:29N 59°56' E 029°42'0 0.1
2016-Jul-24 13:33N 59°56' E 029°42'0 0.3
2016-Jul-24 12:27N 59°56' E 029°41'0 0.1
2016-Jul-24 10:31N 59°56' E 029°42'0 0.1
2016-Jul-24 09:26N 59°56' E 029°42'0 0.1
2016-Jul-24 08:32N 59°56' E 029°41'0 0.4
2016-Jul-24 07:29N 59°56' E 029°42'0 0.3
2016-Jul-24 06:24N 59°56' E 029°42'0 0.2
2016-Jul-24 05:29N 59°56' E 029°42'0 0.1
2016-Jul-24 04:25N 59°56' E 029°42'0 0.2
2016-Jul-24 03:16N 59°56' E 029°42'0 0.0
2016-Jul-24 00:30N 59°56' E 029°42'0 0.0
2016-Jul-23 23:33N 59°56' E 029°42'0 0.0
2016-Jul-23 22:33N 59°56' E 029°42'0 0.0
2016-Jul-23 21:29N 59°56' E 029°42'0 0.0
2016-Jul-23 20:33N 59°56' E 029°42'0 0.0
2016-Jul-23 19:33N 59°56' E 029°42'0 0.0
2016-Jul-23 18:23N 59°56' E 029°42'0 0.0
2016-Jul-23 17:12N 59°56' E 029°42'0 0.0
2016-Jul-23 16:33N 59°56' E 029°42'0 0.0
2016-Jul-23 15:28N 59°56' E 029°42'0 0.4
2016-Jul-23 14:30N 59°56' E 029°42'0 0.3
2016-Jul-23 13:31N 59°56' E 029°41'0 0.0
2016-Jul-23 10:18N 59°56' E 029°41'0 0.1
2016-Jul-23 09:31N 59°56' E 029°41'0 0.4
2016-Jul-23 08:20N 59°56' E 029°42'0 0.0
2016-Jul-23 07:32N 59°56' E 029°42'0 0.2
2016-Jul-23 06:29N 59°56' E 029°42'0 0.2
2016-Jul-23 04:33N 59°56' E 029°41'0 0.1
2016-Jul-23 03:33N 59°56' E 029°41'1 0.7
2016-Jul-23 02:33N 59°56' E 029°42'0 0.0
2016-Jul-23 01:33N 59°56' E 029°42'0 0.0
2016-Jul-23 00:33N 59°56' E 029°42'0 0.0
2016-Jul-22 23:33N 59°56' E 029°42'0 0.0
2016-Jul-22 22:33N 59°56' E 029°42'0 0.0
2016-Jul-22 21:33N 59°56' E 029°42'0 0.0
2016-Jul-22 20:33N 59°56' E 029°42'0 0.0
2016-Jul-22 19:33N 59°56' E 029°42'0 0.0
2016-Jul-22 18:33N 59°56' E 029°42'0 0.0
2016-Jul-22 17:33N 59°56' E 029°42'0 0.0
2016-Jul-22 16:34N 59°56' E 029°42'0 0.0
2016-Jul-22 15:33N 59°56' E 029°42'1 0.6
2016-Jul-22 14:31N 59°56' E 029°41'0 0.1
2016-Jul-22 13:03N 59°56' E 029°41'0 0.6
2016-Jul-22 12:32N 59°56' E 029°42'0 0.2
2016-Jul-22 10:32N 59°56' E 029°41'0 0.0
2016-Jul-22 09:31N 59°56' E 029°41'1 0.5
2016-Jul-22 08:15N 59°56' E 029°42'0 0.0
2016-Jul-22 07:12N 59°56' E 029°42'0 0.0
2016-Jul-21 13:25N 59°56' E 029°42'0 0.2
2016-Jul-21 12:24N 59°56' E 029°42'0 0.2
2016-Jul-21 11:18N 59°56' E 029°42'0 0.1
2016-Jul-21 10:32N 59°56' E 029°42'0 0.4
2016-Jul-21 09:24N 59°56' E 029°41'0 0.3
2016-Jul-21 08:33N 59°56' E 029°42'0 0.1
2016-Jul-21 07:33N 59°56' E 029°42'0 0.2
2016-Jul-21 06:32N 59°56' E 029°41'0 0.5
2016-Jul-21 05:27N 59°56' E 029°42'1 0.7
2016-Jul-21 04:32N 59°56' E 029°41'0 0.0
2016-Jul-21 03:28N 59°56' E 029°41'1 0.1
2016-Jul-20 22:21N 59°56' E 029°42'0 0.0
2016-Jul-20 11:19N 59°56' E 029°42'0 0.1
2016-Jul-20 10:18N 59°56' E 029°42'1 0.6
2016-Jul-20 09:26N 59°56' E 029°41'0 0.2
2016-Jul-20 08:32N 59°56' E 029°41'1 0.5
2016-Jul-20 07:24N 59°56' E 029°43'0 0.4
2016-Jul-20 06:31N 59°56' E 029°42'0 0.1
2016-Jul-20 05:33N 59°56' E 029°42'0 0.4
2016-Jul-20 04:32N 59°56' E 029°41'1 0.1
2016-Jul-19 21:12N 59°56' E 029°42'0 0.1
2016-Jul-19 20:32N 59°56' E 029°42'0 0.1
2016-Jul-19 19:33N 59°56' E 029°42'0 0.0
2016-Jul-19 18:33N 59°56' E 029°42'0 0.0
2016-Jul-19 17:33N 59°56' E 029°42'0 0.0
2016-Jul-19 16:33N 59°56' E 029°42'0 0.0
2016-Jul-19 15:33N 59°56' E 029°42'3 1.3
2016-Jul-19 13:33N 59°59' E 029°44'0 0.1
2016-Jul-19 12:17N 59°59' E 029°44'0 0.2
2016-Jul-19 11:26N 59°59' E 029°44'0 0.1
2016-Jul-19 10:32N 59°58' E 029°45'0 0.1
2016-Jul-19 09:33N 59°59' E 029°45'0 0.1
2016-Jul-19 08:33N 59°59' E 029°45'0 0.1
2016-Jul-19 07:15N 59°59' E 029°44'0 0.1
2016-Jul-19 04:31N 59°59' E 029°44'2 1.6
2016-Jul-19 03:33N 59°57' E 029°44'  

Dump ship's entire track history